createdAt,value
2017-11-26T00:54:26.766Z,98131.64
2017-11-26T00:56:54.648Z,98131.33
2017-11-26T00:59:23.532Z,98134.55
2017-11-26T01:02:17.241Z,98132.98
2017-11-26T01:04:47.777Z,98135.73
2017-11-26T01:07:16.951Z,98137.88
2017-11-26T01:10:04.455Z,98141.67
2017-11-26T01:12:33.407Z,98137.08
2017-11-26T01:15:01.921Z,98135.72
2017-11-26T01:17:32.563Z,98149.40
2017-11-26T01:20:10.286Z,98143.88
2017-11-26T01:22:46.460Z,98146.88
2017-11-26T01:25:14.649Z,98151.86
2017-11-26T01:27:54.566Z,98159.22
2017-11-26T01:30:31.341Z,98160.73
2017-11-26T01:32:59.314Z,98169.00
2017-11-26T01:35:28.216Z,98166.47
2017-11-26T01:41:17.397Z,98177.05
2017-11-26T01:43:45.431Z,98175.64
2017-11-26T01:46:14.182Z,98169.88
2017-11-26T01:49:07.840Z,98179.69
2017-11-26T01:54:45.517Z,98187.66
2017-11-26T01:57:13.056Z,98195.28
2017-11-26T01:59:43.928Z,98204.42
2017-11-26T02:02:12.304Z,98205.31
2017-11-26T02:04:40.642Z,98211.08
2017-11-26T02:07:08.679Z,98212.19
2017-11-26T02:09:37.816Z,98218.22
2017-11-26T02:12:05.873Z,98225.28
2017-11-26T02:14:37.469Z,98225.05
2017-11-26T02:17:09.288Z,98231.84
2017-11-26T02:19:37.781Z,98236.28
2017-11-26T02:22:05.783Z,98233.58
2017-11-26T02:24:34.647Z,98230.95
2017-11-26T02:27:02.396Z,98239.64
2017-11-26T02:29:30.796Z,98234.42
2017-11-26T02:32:10.265Z,98240.31
2017-11-26T02:34:51.706Z,98239.70
2017-11-26T02:37:19.811Z,98239.97
2017-11-26T02:39:49.997Z,98245.69
2017-11-26T02:42:17.976Z,98236.68
2017-11-26T02:44:47.417Z,98236.81
2017-11-26T02:47:15.766Z,98245.95
2017-11-26T02:49:43.587Z,98243.61
2017-11-26T02:52:11.496Z,98243.50
2017-11-26T02:54:45.205Z,98237.38
2017-11-26T02:57:15.378Z,98246.00
2017-11-26T02:59:49.137Z,98253.60
2017-11-26T03:02:17.634Z,98260.42
2017-11-26T03:04:46.851Z,98262.03
2017-11-26T03:07:16.223Z,98266.91
2017-11-26T03:09:48.921Z,98271.15
2017-11-26T03:12:20.264Z,98268.83
2017-11-26T03:14:51.638Z,98276.33
2017-11-26T03:17:20.278Z,98253.32
2017-11-26T03:19:54.187Z,98273.95
2017-11-26T03:22:25.545Z,98273.12
2017-11-26T03:24:58.423Z,98260.28
2017-11-26T03:27:30.704Z,98274.08
2017-11-26T03:30:00.358Z,98274.91
2017-11-26T03:32:33.495Z,98288.44
2017-11-26T03:35:04.419Z,98289.45
2017-11-26T03:37:33.013Z,98293.03
2017-11-26T03:40:08.692Z,98287.54
2017-11-26T03:47:52.920Z,98292.38
2017-11-26T03:50:22.451Z,98278.76
2017-11-26T03:55:31.056Z,98252.80
2017-11-26T03:58:10.386Z,98281.20
2017-11-26T04:00:42.441Z,98278.58
2017-11-26T04:03:11.297Z,98280.59
2017-11-26T04:05:39.370Z,98281.09
2017-11-26T04:08:12.931Z,98278.11
2017-11-26T04:10:42.246Z,98272.30
2017-11-26T04:18:19.463Z,98280.27
2017-11-26T04:20:49.616Z,98280.38
2017-11-26T04:25:52.171Z,98286.90
2017-11-26T04:28:20.277Z,98282.03
2017-11-26T04:30:48.064Z,98290.06
2017-11-26T04:33:16.305Z,98290.34
2017-11-26T04:35:47.444Z,98277.69
2017-11-26T04:40:53.010Z,98291.75
2017-11-26T04:43:29.848Z,98293.55
2017-11-26T04:49:59.682Z,98298.16
2017-11-26T04:52:27.475Z,98297.78
2017-11-26T04:54:58.062Z,98292.41
2017-11-26T04:57:26.752Z,98293.00
2017-11-26T04:59:54.854Z,98291.48
2017-11-26T05:02:32.255Z,98289.53
2017-11-26T05:05:01.941Z,98283.08
2017-11-26T05:07:30.879Z,98278.43
2017-11-26T05:09:59.757Z,98277.50
2017-11-26T05:12:27.515Z,98277.13
2017-11-26T05:14:57.570Z,98284.84
2017-11-26T05:17:26.646Z,98292.09
2017-11-26T05:19:54.744Z,98295.56
2017-11-26T05:22:30.401Z,98293.25
2017-11-26T05:24:58.421Z,98293.56
2017-11-26T05:27:26.255Z,98301.29
2017-11-26T05:35:59.747Z,98308.70
2017-11-26T05:38:30.279Z,98312.77
2017-11-26T05:41:01.725Z,98323.20
2017-11-26T05:43:30.496Z,98320.73
2017-11-26T05:45:58.412Z,98324.69
2017-11-26T05:48:28.629Z,98329.52
2017-11-26T05:50:56.685Z,98335.88
2017-11-26T05:53:26.105Z,98320.11
2017-11-26T05:56:01.621Z,98326.13
2017-11-26T05:58:29.320Z,98325.17
2017-11-26T06:00:57.233Z,98320.00
2017-11-26T06:03:26.107Z,98313.95
2017-11-26T06:05:55.549Z,98297.61
2017-11-26T06:08:23.666Z,98310.89
2017-11-26T06:10:54.860Z,98311.95
2017-11-26T06:13:24.161Z,98313.88
2017-11-26T06:15:55.801Z,98315.03
2017-11-26T06:18:24.773Z,98308.05
2017-11-26T06:20:54.529Z,98311.52
2017-11-26T06:23:23.149Z,98313.84
2017-11-26T06:25:51.084Z,98305.41
2017-11-26T06:28:19.241Z,98309.70
2017-11-26T06:30:47.338Z,98310.53
2017-11-26T06:33:16.599Z,98309.03
2017-11-26T06:38:35.144Z,98313.66
2017-11-26T06:41:07.905Z,98325.51
2017-11-26T07:38:50.963Z,98370.45
2017-11-26T07:41:18.468Z,98376.89
2017-11-26T07:43:46.238Z,98378.70
2017-11-26T07:46:13.858Z,98387.45
2017-11-26T07:48:41.397Z,98384.14
2017-11-26T07:51:09.278Z,98390.50
2017-11-26T07:53:42.176Z,98396.89
2017-11-26T07:56:09.799Z,98390.69
2017-11-26T07:58:37.502Z,98386.83
2017-11-26T08:01:05.184Z,98390.31
2017-11-26T08:03:32.756Z,98395.27
2017-11-26T08:06:00.301Z,98388.45
2017-11-26T08:08:27.885Z,98393.36
2017-11-26T08:10:55.828Z,98397.52
2017-11-26T08:13:26.177Z,98400.45
2017-11-26T08:15:53.985Z,98406.32
2017-11-26T08:18:22.585Z,98406.27
2017-11-26T08:20:50.145Z,98411.59
2017-11-26T08:23:18.198Z,98415.17
2017-11-26T08:25:46.352Z,98417.32
2017-11-26T08:28:13.934Z,98426.39
2017-11-26T08:30:41.625Z,98425.30
2017-11-26T08:33:14.370Z,98405.52
2017-11-26T08:35:42.191Z,98423.95
2017-11-26T08:38:13.846Z,98417.55
2017-11-26T08:40:42.019Z,98417.22
2017-11-26T08:45:48.665Z,98425.95
2017-11-26T08:48:21.633Z,98424.09
2017-11-26T08:50:55.816Z,98401.05
2017-11-26T08:53:24.671Z,98403.60
2017-11-26T08:55:53.312Z,98423.87
2017-11-26T08:58:21.145Z,98425.95
2017-11-26T09:00:48.773Z,98433.89
2017-11-26T09:03:21.085Z,98428.94
2017-11-26T09:05:49.006Z,98435.92
2017-11-26T09:11:31.547Z,98435.58
2017-11-26T09:13:59.602Z,98430.13
2017-11-26T09:16:27.554Z,98435.33
2017-11-26T09:18:55.062Z,98430.00
2017-11-26T09:21:22.616Z,98434.97
2017-11-26T09:23:50.127Z,98433.52
2017-11-26T09:26:17.648Z,98437.39
2017-11-26T09:28:45.125Z,98438.31
2017-11-26T09:31:14.895Z,98447.20
2017-11-26T09:33:42.433Z,98444.08
2017-11-26T09:36:09.959Z,98450.38
2017-11-26T09:38:37.632Z,98440.57
2017-11-26T09:41:05.089Z,98429.95
2017-11-26T09:43:32.583Z,98432.06
2017-11-26T09:46:00.380Z,98418.98
2017-11-26T09:48:27.939Z,98439.50
2017-11-26T09:58:14.590Z,98426.84
2017-11-26T10:00:42.320Z,98423.50
2017-11-26T10:03:09.933Z,98435.12
2017-11-26T10:05:37.718Z,98410.03
2017-11-26T10:08:05.660Z,98427.02
2017-11-26T10:10:33.234Z,98436.52
2017-11-26T10:13:00.763Z,98439.50
2017-11-26T10:15:28.327Z,98427.74
2017-11-26T10:17:55.902Z,98425.38
2017-11-26T10:20:23.456Z,98424.56
2017-11-26T10:22:50.996Z,98424.42
2017-11-26T10:25:19.330Z,98427.46
2017-11-26T10:27:46.946Z,98415.25
2017-11-26T10:30:14.504Z,98420.77
2017-11-26T10:32:42.142Z,98415.03
2017-11-26T10:35:09.801Z,98413.16
2017-11-26T10:37:39.405Z,98416.58
2017-11-26T10:40:06.980Z,98420.58
2017-11-26T10:42:34.677Z,98422.71
2017-11-26T10:45:03.233Z,98414.91
2017-11-26T10:47:30.810Z,98414.02
2017-11-26T10:49:58.364Z,98408.89
2017-11-26T10:52:26.004Z,98416.71
2017-11-26T10:54:53.563Z,98411.25
2017-11-26T10:57:21.923Z,98413.10
2017-11-26T10:59:49.539Z,98407.95
2017-11-26T11:02:17.198Z,98401.72
2017-11-26T11:04:44.915Z,98412.93
2017-11-26T11:07:12.555Z,98405.69
2017-11-26T11:09:40.100Z,98407.96
2017-11-26T11:12:07.736Z,98408.09
2017-11-26T11:14:35.332Z,98410.55
2017-11-26T11:17:02.921Z,98411.95
2017-11-26T11:19:30.508Z,98410.44
2017-11-26T11:21:58.565Z,98412.41
2017-11-26T11:24:26.219Z,98409.38
2017-11-26T11:26:53.853Z,98410.89
2017-11-26T11:29:21.596Z,98412.88
2017-11-26T11:31:49.330Z,98409.48
2017-11-26T11:34:16.864Z,98393.02
2017-11-26T11:36:44.510Z,98409.39
2017-11-26T11:39:12.106Z,98410.33
2017-11-26T11:41:39.740Z,98424.63
2017-11-26T11:44:07.398Z,98427.17
2017-11-26T11:46:35.057Z,98439.28
2017-11-26T11:49:02.633Z,98447.39
2017-11-26T11:51:31.014Z,98459.59
2017-11-26T11:53:58.634Z,98464.78
2017-11-26T11:56:26.351Z,98452.44
2017-11-26T11:58:53.971Z,98444.95
2017-11-26T12:01:22.383Z,98447.30
2017-11-26T12:03:49.986Z,98450.30
2017-11-26T12:06:17.626Z,98453.34
2017-11-26T12:08:45.183Z,98452.59
2017-11-26T12:11:13.685Z,98459.13
2017-11-26T12:13:41.712Z,98456.03
2017-11-26T12:16:09.513Z,98444.34
2017-11-26T12:18:38.826Z,98447.35
2017-11-26T12:21:06.496Z,98450.83
2017-11-26T12:23:34.991Z,98452.45
2017-11-26T12:26:02.985Z,98451.53
2017-11-26T12:28:30.653Z,98440.84
2017-11-26T12:30:58.212Z,98446.95
2017-11-26T12:33:25.773Z,98439.14
2017-11-26T12:35:53.414Z,98441.84
2017-11-26T12:38:21.051Z,98442.82
2017-11-26T12:40:48.729Z,98445.63
2017-11-26T12:43:16.794Z,98446.36
2017-11-26T12:45:45.070Z,98441.17
2017-11-26T12:48:13.188Z,98434.95
2017-11-26T12:50:40.883Z,98440.09
2017-11-26T12:53:08.587Z,98433.36
2017-11-26T12:55:36.213Z,98436.86
2017-11-26T12:58:03.834Z,98364.54
2017-11-26T13:00:31.399Z,98436.73
2017-11-26T13:02:59.949Z,98445.02
2017-11-26T13:05:27.588Z,98439.92
2017-11-26T13:07:55.226Z,98441.87
2017-11-26T13:10:22.804Z,98441.20
2017-11-26T13:12:50.376Z,98439.05
2017-11-26T13:15:17.997Z,98443.52
2017-11-26T13:17:46.372Z,98455.59
2017-11-26T13:20:13.951Z,98455.88
2017-11-26T13:22:41.474Z,98454.71
2017-11-26T13:25:09.310Z,98458.93
2017-11-26T13:27:37.105Z,98460.61
2017-11-26T13:30:05.487Z,98465.77
2017-11-26T13:32:33.038Z,98457.94
2017-11-26T13:35:00.951Z,98463.97
2017-11-26T13:37:30.778Z,98456.73
2017-11-26T13:39:58.856Z,98456.03
2017-11-26T13:42:26.390Z,98459.41
2017-11-26T13:44:54.297Z,98462.28
2017-11-26T13:47:22.532Z,98457.77
2017-11-26T13:49:50.151Z,98453.84
2017-11-26T13:52:18.504Z,98453.41
2017-11-26T13:54:46.101Z,98453.27
2017-11-26T13:57:14.528Z,98451.17
2017-11-26T13:59:42.198Z,98455.45
2017-11-26T14:02:09.792Z,98456.95
2017-11-26T14:04:37.444Z,98456.57
2017-11-26T14:07:05.306Z,98455.22
2017-11-26T14:09:33.310Z,98461.03
2017-11-26T14:12:01.586Z,98458.28
2017-11-26T14:14:29.300Z,98465.38
2017-11-26T14:16:56.982Z,98465.08
2017-11-26T14:19:24.622Z,98460.58
2017-11-26T14:21:52.268Z,98458.47
2017-11-26T14:24:20.062Z,98457.72
2017-11-26T14:26:47.819Z,98455.77
2017-11-26T14:29:15.448Z,98455.86
2017-11-26T14:31:43.133Z,98450.59
2017-11-26T14:34:10.704Z,98455.41
2017-11-26T14:36:38.294Z,98465.12
2017-11-26T14:39:06.061Z,98454.41
2017-11-26T14:41:33.691Z,98459.51
2017-11-26T14:44:01.740Z,98459.39
2017-11-26T14:46:29.356Z,98446.77
2017-11-26T14:48:57.073Z,98462.17
2017-11-26T14:51:24.814Z,98470.23
2017-11-26T14:53:52.707Z,98473.47
2017-11-26T14:56:20.563Z,98479.45
2017-11-26T14:58:49.046Z,98482.59
2017-11-26T15:01:16.760Z,98480.17
2017-11-26T15:03:44.440Z,98490.01
2017-11-26T15:06:12.259Z,98479.68
2017-11-26T15:08:39.858Z,98483.75
2017-11-26T15:11:07.443Z,98490.17
2017-11-26T15:13:35.049Z,98493.23
2017-11-26T15:16:03.416Z,98494.05
2017-11-26T15:18:30.972Z,98496.80
2017-11-26T15:20:58.759Z,98499.01
2017-11-26T15:23:26.280Z,98504.17
2017-11-26T15:25:54.055Z,98507.17
2017-11-26T15:28:21.783Z,98501.23
2017-11-26T15:30:49.339Z,98494.45
2017-11-26T15:33:17.070Z,98469.47
2017-11-26T15:35:45.272Z,98505.56
2017-11-26T15:38:13.093Z,98509.88
2017-11-26T15:40:40.914Z,98515.77
2017-11-26T15:43:10.054Z,98527.45
2017-11-26T15:45:38.593Z,98527.59
2017-11-26T15:48:11.975Z,98529.02
2017-11-26T15:50:40.115Z,98530.77
2017-11-26T15:53:09.570Z,98526.55
2017-11-26T15:55:38.363Z,98530.29
2017-11-26T15:58:08.586Z,98534.47
2017-11-26T16:00:37.454Z,98533.42
2017-11-26T16:03:05.645Z,98541.73
2017-11-26T16:05:43.889Z,98535.52
2017-11-26T16:08:12.404Z,98539.84
2017-11-26T16:10:39.893Z,98534.02
2017-11-26T16:13:08.161Z,98545.45
2017-11-26T16:15:36.845Z,98542.98
2017-11-26T16:18:06.695Z,98546.37
2017-11-26T16:20:34.337Z,98543.02
2017-11-26T16:23:02.660Z,98547.59
2017-11-26T16:25:30.954Z,98547.82
2017-11-26T16:27:58.771Z,98547.64
2017-11-26T16:30:26.540Z,98557.19
2017-11-26T16:32:54.310Z,98557.44
2017-11-26T16:35:22.247Z,98560.18
2017-11-26T16:37:52.341Z,98559.35
2017-11-26T16:40:21.230Z,98565.72
2017-11-26T16:42:49.233Z,98570.13
2017-11-26T16:45:18.445Z,98563.47
2017-11-26T16:47:48.051Z,98567.98
2017-11-26T16:50:16.982Z,98567.33
2017-11-26T16:52:48.255Z,98569.42
2017-11-26T16:55:16.205Z,98569.88
2017-11-26T16:57:44.968Z,98574.30
2017-11-26T17:00:13.552Z,98568.65
2017-11-26T17:02:41.066Z,98575.01
2017-11-26T17:05:09.563Z,98577.52
2017-11-26T17:07:37.226Z,98581.59
2017-11-26T17:10:06.681Z,98575.13
2017-11-26T17:12:34.840Z,98578.27
2017-11-26T17:15:04.585Z,98583.65
2017-11-26T17:17:33.192Z,98586.58
2017-11-26T17:20:03.886Z,98594.64
2017-11-26T17:22:32.642Z,98601.14
2017-11-26T17:25:01.617Z,98610.84
2017-11-26T17:27:29.441Z,98606.00
2017-11-26T17:29:57.393Z,98613.87
2017-11-26T17:32:25.771Z,98605.74
2017-11-26T17:34:55.558Z,98610.84
2017-11-26T17:37:23.145Z,98611.55
2017-11-26T17:39:51.063Z,98611.38
2017-11-26T17:42:19.488Z,98614.18
2017-11-26T17:44:47.368Z,98615.05
2017-11-26T17:47:15.821Z,98615.69
2017-11-26T17:49:43.678Z,98616.71
2017-11-26T17:52:12.414Z,98616.61
2017-11-26T17:54:40.442Z,98610.88
2017-11-26T17:57:08.035Z,98621.16
2017-11-26T17:59:36.668Z,98617.09
2017-11-26T18:02:04.411Z,98627.21
2017-11-26T18:04:32.624Z,98637.08
2017-11-26T18:07:00.418Z,98642.53
2017-11-26T18:09:31.000Z,98650.28
2017-11-26T18:12:01.162Z,98644.86
2017-11-26T18:14:28.760Z,98650.16
2017-11-26T18:16:57.122Z,98660.00
2017-11-26T18:19:24.865Z,98652.80
2017-11-26T18:21:55.917Z,98654.91
2017-11-26T18:24:23.982Z,98659.70
2017-11-26T18:26:53.097Z,98653.92
2017-11-26T18:29:25.274Z,98651.16
2017-11-26T18:31:53.290Z,98642.97
2017-11-26T18:34:21.192Z,98643.81
2017-11-26T18:36:51.421Z,98640.50
2017-11-26T18:39:18.949Z,98641.52
2017-11-26T18:41:47.575Z,98647.89
2017-11-26T18:44:15.491Z,98662.88
2017-11-26T18:46:44.127Z,98651.33
2017-11-26T18:49:12.849Z,98648.89
2017-11-26T18:51:40.882Z,98649.24
2017-11-26T18:54:09.368Z,98656.06
2017-11-26T18:56:37.063Z,98657.39
2017-11-26T18:59:05.983Z,98644.63
2017-11-26T19:01:36.544Z,98656.67
2017-11-26T19:04:04.341Z,98661.30
2017-11-26T19:06:32.473Z,98658.20
2017-11-26T19:09:01.012Z,98659.19
2017-11-26T19:11:28.873Z,98663.76
2017-11-26T19:13:56.834Z,98662.91
2017-11-26T19:16:24.788Z,98660.89
2017-11-26T19:18:52.731Z,98653.95
2017-11-26T19:21:22.059Z,98657.52
2017-11-26T19:23:50.163Z,98658.04
2017-11-26T19:26:19.336Z,98664.04
2017-11-26T19:28:47.230Z,98663.03
2017-11-26T19:31:15.181Z,98657.22
2017-11-26T19:33:45.041Z,98654.80
2017-11-26T19:36:12.840Z,98655.88
2017-11-26T19:38:41.508Z,98656.28
2017-11-26T19:41:09.942Z,98651.22
2017-11-26T19:43:37.673Z,98651.81
2017-11-26T19:46:06.580Z,98652.55
2017-11-26T19:48:34.365Z,98656.32
2017-11-26T19:51:02.808Z,98657.91
2017-11-26T19:53:30.673Z,98656.52
2017-11-26T19:55:59.383Z,98655.72
2017-11-26T19:58:27.155Z,98657.70
2017-11-26T20:00:54.884Z,98654.66
2017-11-26T20:03:22.873Z,98576.16
2017-11-26T20:05:50.823Z,98656.48
2017-11-26T20:08:19.693Z,98659.43
2017-11-26T20:10:47.891Z,98659.64
2017-11-26T20:13:17.523Z,98657.16
2017-11-26T20:15:48.383Z,98661.70
2017-11-26T20:18:16.595Z,98670.88
2017-11-26T20:20:46.856Z,98671.08
2017-11-26T20:23:14.775Z,98673.36
2017-11-26T20:25:43.989Z,98673.98
2017-11-26T20:28:11.814Z,98674.58
2017-11-26T20:30:40.323Z,98673.36
2017-11-26T20:33:08.426Z,98686.52
2017-11-26T20:35:36.579Z,98682.98
2017-11-26T20:38:04.480Z,98685.45
2017-11-26T20:40:33.916Z,98692.05
2017-11-26T20:43:01.810Z,98692.97
2017-11-26T20:45:30.091Z,98691.15
2017-11-26T20:47:59.968Z,98670.94
2017-11-26T20:50:28.712Z,98682.59
2017-11-26T20:52:58.890Z,98687.11
2017-11-26T20:55:27.309Z,98684.38
2017-11-26T20:57:55.758Z,98688.63
2017-11-26T21:00:26.838Z,98625.77
2017-11-26T21:02:54.706Z,98685.67
2017-11-26T21:05:23.611Z,98685.19
2017-11-26T21:07:52.263Z,98686.26
2017-11-26T21:10:20.690Z,98685.09
2017-11-26T21:12:49.253Z,98686.56
2017-11-26T21:15:17.648Z,98691.08
2017-11-26T21:17:45.606Z,98693.70
2017-11-26T21:20:15.618Z,98688.62
2017-11-26T21:22:44.865Z,98685.53
2017-11-26T21:25:13.881Z,98685.74
2017-11-26T21:27:42.945Z,98676.33
2017-11-26T21:30:13.027Z,98672.61
2017-11-26T21:32:41.101Z,98671.25
2017-11-26T21:35:09.479Z,98661.03
2017-11-26T21:37:38.657Z,98666.67
2017-11-26T21:40:11.081Z,98665.64
2017-11-26T21:45:43.587Z,98664.10
2017-11-26T21:48:19.954Z,98656.11
2017-11-26T21:50:49.987Z,98659.59
2017-11-26T21:53:22.371Z,98663.76
2017-11-26T21:55:52.814Z,98656.98
2017-11-26T21:58:22.481Z,98665.64
2017-11-26T22:00:51.643Z,98664.56
2017-11-26T22:03:25.349Z,98660.09
2017-11-26T22:05:57.377Z,98663.05
2017-11-26T22:08:25.830Z,98668.34
2017-11-26T22:10:57.518Z,98664.85
2017-11-26T22:13:26.071Z,98668.98
2017-11-26T22:15:55.627Z,98673.55
2017-11-26T22:18:29.418Z,98671.53
2017-11-26T22:20:59.243Z,98678.06
2017-11-26T22:23:30.041Z,98675.42
2017-11-26T22:26:04.318Z,98671.06
2017-11-26T22:28:37.745Z,98675.36
2017-11-26T22:31:13.626Z,98647.28
2017-11-26T22:33:47.572Z,98674.97
2017-11-26T22:36:24.096Z,98675.27
2017-11-26T22:39:12.762Z,98677.27
2017-11-26T22:41:51.164Z,98673.02
2017-11-26T22:47:22.628Z,98661.45
2017-11-26T22:49:53.236Z,98661.89
2017-11-26T22:52:24.161Z,98665.16
2017-11-26T23:34:02.429Z,98653.47
2017-11-26T23:36:36.973Z,98679.41
2017-11-26T23:39:11.590Z,98680.21
2017-11-26T23:41:41.669Z,98673.98
2017-11-26T23:44:14.699Z,98676.37
2017-11-26T23:46:43.987Z,98674.92
2017-11-26T23:49:18.617Z,98678.47
2017-11-26T23:51:50.464Z,98670.17
2017-11-26T23:54:21.811Z,98674.40
2017-11-26T23:56:58.753Z,98662.34
2017-11-26T23:59:28.985Z,98662.31
